Time;durP1;ratioP1;P1;durP2;ratioP2;P2;SDS_P1;SDS_P2;PMS_P1;PMS_P2;Temp;Humidity;BMP_temperature;BMP_pressure;BME280_temperature;BME280_humidity;BME280_pressure;Samples;Min_cycle;Max_cycle;Signal;HPM_P1;HPM_P2
2023/02/26 00:00:30;;;;;;;0.00;0.00;;;8.20;92.00;;;;;;5052904;28;20061;-71
2023/02/26 00:02:56;;;;;;;0.00;0.00;;;8.20;92.00;;;;;;5070453;28;20056;-71
2023/02/26 00:05:22;;;;;;;0.00;0.00;;;8.10;92.00;;;;;;5052471;28;20111;-71
2023/02/26 00:07:47;;;;;;;0.00;0.00;;;8.10;92.00;;;;;;5052612;28;20475;-71
2023/02/26 00:10:15;;;;;;;0.00;0.00;;;8.00;92.00;;;;;;5070325;28;20070;-71
2023/02/26 00:12:41;;;;;;;0.00;0.00;;;8.00;92.00;;;;;;5052072;28;20481;-72
2023/02/26 00:15:11;;;;;;;0.00;0.00;;;8.00;92.00;;;;;;5069928;28;20043;-71
2023/02/26 00:18:03;;;;;;;0.00;0.00;;;8.00;92.10;;;;;;5070143;28;20020;-71
2023/02/26 00:20:29;;;;;;;0.00;0.00;;;7.90;92.00;;;;;;5051344;28;20116;-71
2023/02/26 00:22:55;;;;;;;0.00;0.00;;;7.90;92.00;;;;;;5052129;28;20042;-71
2023/02/26 00:25:20;;;;;;;0.00;0.00;;;7.90;92.10;;;;;;5070030;28;20539;-71
2023/02/26 00:27:46;;;;;;;0.00;0.00;;;7.90;92.10;;;;;;5052155;28;20040;-71
2023/02/26 00:30:12;;;;;;;0.00;0.00;;;7.90;92.10;;;;;;5052118;28;20111;-71
2023/02/26 00:32:38;;;;;;;0.00;0.00;;;7.90;92.10;;;;;;5070100;28;20032;-71
2023/02/26 00:35:07;;;;;;;0.22;0.15;;;7.90;92.10;;;;;;5069696;28;20032;-72
2023/02/26 00:37:40;;;;;;;0.00;0.00;;;7.90;92.10;;;;;;5069828;28;20025;-71
2023/02/26 00:40:25;;;;;;;0.00;0.00;;;7.90;92.10;;;;;;5069836;28;20021;-71
2023/02/26 00:42:52;;;;;;;0.00;0.00;;;7.90;92.10;;;;;;5051860;28;20350;-72
2023/02/26 00:45:18;;;;;;;0.00;0.00;;;7.90;92.10;;;;;;5051989;28;20024;-72
2023/02/26 00:47:49;;;;;;;0.00;0.00;;;7.90;92.10;;;;;;5069769;28;20086;-72
2023/02/26 00:50:17;;;;;;;0.00;0.00;;;7.90;92.10;;;;;;5069631;28;20032;-72
2023/02/26 00:52:56;;;;;;;0.00;0.00;;;7.90;92.10;;;;;;5069530;28;20013;-73
2023/02/26 00:55:22;;;;;;;0.00;0.00;;;7.90;92.10;;;;;;5051711;28;20020;-73
2023/02/26 00:57:48;;;;;;;0.00;0.00;;;7.90;92.10;;;;;;5069590;28;20036;-70
2023/02/26 01:00:14;;;;;;;0.00;0.00;;;7.90;92.10;;;;;;5069359;28;20111;-70
2023/02/26 01:02:40;;;;;;;;;;;7.80;92.10;;;;;;5069745;28;20060;-73
2023/02/26 01:05:07;;;;;;;0.00;0.00;;;7.90;92.10;;;;;;5051409;28;19946;-72
2023/02/26 01:07:56;;;;;;;0.00;0.00;;;7.80;92.00;;;;;;5069218;28;20021;-72
2023/02/26 01:10:22;;;;;;;0.00;0.00;;;7.80;91.90;;;;;;5069339;28;20021;-72
2023/02/26 01:12:48;;;;;;;0.00;0.00;;;7.80;92.00;;;;;;5069343;28;20044;-72
2023/02/26 01:15:15;;;;;;;0.00;0.00;;;7.80;92.00;;;;;;5051190;28;20029;-72
2023/02/26 01:17:50;;;;;;;;;;;7.80;92.00;;;;;;5069637;28;20429;-72
2023/02/26 01:20:18;;;;;;;0.00;0.00;;;7.80;92.00;;;;;;5069341;28;20300;-71
2023/02/26 01:22:54;;;;;;;0.00;0.00;;;7.80;92.00;;;;;;5069131;28;20036;-70
2023/02/26 01:25:38;;;;;;;0.00;0.00;;;7.80;92.00;;;;;;5068995;28;20059;-71
2023/02/26 01:28:04;;;;;;;0.00;0.00;;;7.80;92.00;;;;;;5068734;28;20096;-71
2023/02/26 01:30:30;;;;;;;0.00;0.00;;;7.80;92.00;;;;;;5050858;28;20029;-71
2023/02/26 01:32:55;;;;;;;;;;;7.80;92.00;;;;;;5068933;28;20029;-73
2023/02/26 01:35:46;;;;;;;0.00;0.00;;;7.80;92.00;;;;;;5068726;28;20317;-80
2023/02/26 01:38:31;;;;;;;0.00;0.00;;;7.80;92.00;;;;;;5069227;28;20048;-71
2023/02/26 01:41:15;;;;;;;0.00;0.00;;;7.80;91.90;;;;;;5068667;28;20350;-70
2023/02/26 01:44:08;;;;;;;0.00;0.00;;;7.80;91.90;;;;;;5068939;28;20032;-72
2023/02/26 01:47:04;;;;;;;0.00;0.00;;;7.70;91.90;;;;;;5068622;28;20049;-72
2023/02/26 01:49:31;;;;;;;0.00;0.00;;;7.70;91.90;;;;;;5068255;28;20062;-73
2023/02/26 01:51:59;;;;;;;0.00;0.00;;;7.60;91.90;;;;;;5068435;28;20044;-76
2023/02/26 01:54:32;;;;;;;0.00;0.00;;;7.60;91.90;;;;;;5068301;28;20074;-76
2023/02/26 01:57:03;;;;;;;0.00;0.00;;;7.60;92.00;;;;;;5068381;28;20034;-76
2023/02/26 01:59:31;;;;;;;0.00;0.00;;;7.50;92.00;;;;;;5067422;28;20021;-76
2023/02/26 02:01:58;;;;;;;0.00;0.00;;;7.60;92.10;;;;;;5068253;28;20032;-76
2023/02/26 02:04:25;;;;;;;0.00;0.00;;;7.50;92.00;;;;;;5050533;28;20042;-76
2023/02/26 02:06:53;;;;;;;0.00;0.00;;;7.60;92.00;;;;;;5068200;28;20116;-76
2023/02/26 02:09:19;;;;;;;0.00;0.00;;;7.60;92.00;;;;;;5050342;28;20115;-76
2023/02/26 02:12:07;;;;;;;0.00;0.00;;;7.60;92.00;;;;;;5050238;28;20111;-76
2023/02/26 02:15:06;;;;;;;0.00;0.00;;;7.60;92.00;;;;;;5068307;28;20059;-76
2023/02/26 02:17:56;;;;;;;0.00;0.00;;;7.50;91.90;;;;;;5050209;28;20476;-76
2023/02/26 02:20:43;;;;;;;0.00;0.00;;;7.40;91.90;;;;;;5068033;28;20045;-77
2023/02/26 02:23:21;;;;;;;0.00;0.00;;;7.30;91.80;;;;;;5068140;28;20056;-76
2023/02/26 02:26:04;;;;;;;0.00;0.00;;;7.20;91.80;;;;;;5067920;28;20113;-76
2023/02/26 02:29:00;;;;;;;0.00;0.00;;;7.00;91.70;;;;;;5067882;28;20372;-76
2023/02/26 02:31:34;;;;;;;0.00;0.00;;;6.90;91.70;;;;;;5067992;28;20103;-76
2023/02/26 02:34:11;;;;;;;0.00;0.00;;;6.80;91.80;;;;;;5068008;28;20017;-76
2023/02/26 02:37:01;;;;;;;0.00;0.00;;;6.60;91.80;;;;;;5067867;28;20048;-78
2023/02/26 02:39:43;;;;;;;0.00;0.00;;;6.50;91.70;;;;;;5067934;28;20024;-78
2023/02/26 02:42:30;;;;;;;0.00;0.00;;;6.40;91.80;;;;;;5067958;28;20031;-78
2023/02/26 02:45:02;;;;;;;;;;;6.30;91.80;;;;;;5049343;28;20029;-78
2023/02/26 02:47:31;;;;;;;0.00;0.00;;;6.20;92.00;;;;;;5049473;28;19916;-78
2023/02/26 02:50:13;;;;;;;0.00;0.00;;;6.20;91.70;;;;;;5067552;28;20024;-78
2023/02/26 02:52:49;;;;;;;0.00;0.00;;;6.20;91.70;;;;;;5067769;28;20035;-78
2023/02/26 02:55:24;;;;;;;0.00;0.00;;;6.20;91.70;;;;;;5067560;28;20025;-78
2023/02/26 02:57:59;;;;;;;0.00;0.00;;;6.10;91.70;;;;;;5067665;28;20099;-78
2023/02/26 03:00:27;;;;;;;0.00;0.00;;;6.10;91.70;;;;;;5067608;28;20487;-78
2023/02/26 03:03:13;;;;;;;0.00;0.00;;;6.10;91.70;;;;;;5067580;28;20056;-78
2023/02/26 03:05:39;;;;;;;0.00;0.00;;;6.00;91.60;;;;;;5067431;28;20053;-78
2023/02/26 03:08:11;;;;;;;0.00;0.00;;;6.00;91.60;;;;;;5067461;28;20759;-78
2023/02/26 03:10:37;;;;;;;0.00;0.00;;;6.00;91.60;;;;;;5067488;28;20385;-78
2023/02/26 03:13:03;;;;;;;0.00;0.00;;;6.00;91.60;;;;;;5067558;28;20103;-78
2023/02/26 03:16:04;;;;;;;0.00;0.00;;;6.00;91.60;;;;;;5067504;28;20021;-78
2023/02/26 03:19:06;;;;;;;0.00;0.00;;;6.10;91.70;;;;;;5052660;28;20369;-77
2023/02/26 03:21:40;;;;;;;0.00;0.00;;;6.20;91.70;;;;;;5067445;28;20020;-78
2023/02/26 03:24:26;;;;;;;0.00;0.00;;;6.40;91.80;;;;;;5067312;28;20090;-78
2023/02/26 03:27:08;;;;;;;0.00;0.00;;;6.50;91.70;;;;;;5049443;28;20146;-78
2023/02/26 03:29:37;;;;;;;0.00;0.00;;;6.60;91.70;;;;;;5067085;28;20025;-78
2023/02/26 03:32:11;;;;;;;0.00;0.00;;;6.80;91.70;;;;;;5067210;28;20107;-78
2023/02/26 03:34:55;;;;;;;0.00;0.00;;;6.90;91.70;;;;;;5049428;28;20520;-78
2023/02/26 03:37:24;;;;;;;0.00;0.00;;;7.00;91.70;;;;;;5049272;28;20052;-77
2023/02/26 03:39:53;;;;;;;0.00;0.00;;;7.10;91.70;;;;;;5067001;28;20050;-78
2023/02/26 03:42:42;;;;;;;0.00;0.00;;;7.10;91.70;;;;;;5067164;28;20053;-78
2023/02/26 03:45:18;;;;;;;0.00;0.00;;;7.10;91.70;;;;;;5066960;28;20028;-77
2023/02/26 03:47:48;;;;;;;0.00;0.00;;;7.20;91.70;;;;;;5067127;28;20020;-78
2023/02/26 03:50:21;;;;;;;0.00;0.00;;;7.20;91.80;;;;;;5067045;28;20677;-78
2023/02/26 03:52:49;;;;;;;0.00;0.00;;;7.20;91.80;;;;;;5067111;28;20020;-78
2023/02/26 03:55:27;;;;;;;0.00;0.00;;;7.20;91.70;;;;;;5067910;28;20047;-78
2023/02/26 03:57:54;;;;;;;0.00;0.00;;;7.20;91.70;;;;;;5070673;28;20051;-77
2023/02/26 04:00:20;;;;;;;;;;;7.10;91.70;;;;;;5071179;28;20116;-78
2023/02/26 04:02:57;;;;;;;0.00;0.00;;;7.10;91.80;;;;;;5070914;28;20471;-77
2023/02/26 04:05:36;;;;;;;0.00;0.00;;;7.10;91.70;;;;;;5070566;28;20369;-77
2023/02/26 04:08:02;;;;;;;0.00;0.00;;;7.00;91.70;;;;;;5070534;28;20032;-78
2023/02/26 04:10:38;;;;;;;0.00;0.00;;;7.00;91.70;;;;;;5070391;28;20036;-77
2023/02/26 04:13:04;;;;;;;0.00;0.00;;;6.90;91.70;;;;;;5052866;28;20788;-78
2023/02/26 04:15:30;;;;;;;0.00;0.00;;;6.90;91.90;;;;;;5070446;28;20058;-78
2023/02/26 04:17:56;;;;;;;0.00;0.00;;;6.90;91.80;;;;;;5070307;28;20123;-78
2023/02/26 04:20:22;;;;;;;0.00;0.00;;;7.00;91.90;;;;;;5070304;28;20036;-78
2023/02/26 04:22:48;;;;;;;0.00;0.00;;;7.00;91.90;;;;;;5052198;28;20098;-78
2023/02/26 04:25:13;;;;;;;0.00;0.00;;;7.10;91.90;;;;;;5070341;28;20032;-78
2023/02/26 04:27:39;;;;;;;0.00;0.00;;;7.10;91.90;;;;;;5070133;28;20035;-78
2023/02/26 04:30:05;;;;;;;0.00;0.00;;;7.10;91.90;;;;;;5052195;28;20043;-78
2023/02/26 04:32:31;;;;;;;0.00;0.00;;;7.10;91.80;;;;;;5070276;28;20031;-77
2023/02/26 04:34:57;;;;;;;0.00;0.00;;;7.10;91.90;;;;;;5070071;28;20350;-78
2023/02/26 04:37:23;;;;;;;0.00;0.00;;;7.10;91.90;;;;;;5069929;28;20036;-78
2023/02/26 04:39:48;;;;;;;0.00;0.00;;;7.10;91.90;;;;;;5069915;28;20033;-78
2023/02/26 04:42:14;;;;;;;0.00;0.00;;;7.20;91.90;;;;;;5069908;28;20165;-78
2023/02/26 04:44:40;;;;;;;0.00;0.00;;;7.30;92.00;;;;;;5070008;28;20100;-78
2023/02/26 04:47:05;;;;;;;0.00;0.00;;;7.40;91.90;;;;;;5069793;28;20498;-78
2023/02/26 04:49:31;;;;;;;0.00;0.00;;;7.40;91.80;;;;;;5069671;28;20028;-78
2023/02/26 04:51:57;;;;;;;0.00;0.00;;;7.50;91.80;;;;;;5051899;28;20468;-78
2023/02/26 04:54:22;;;;;;;0.00;0.00;;;7.60;91.80;;;;;;5069871;28;20578;-78
2023/02/26 04:56:48;;;;;;;0.00;0.00;;;7.60;91.80;;;;;;5069503;28;20047;-78
2023/02/26 04:59:14;;;;;;;0.00;0.00;;;7.60;91.70;;;;;;5051626;28;20040;-78
2023/02/26 05:01:39;;;;;;;0.00;0.00;;;7.50;91.70;;;;;;5051716;28;20053;-78
2023/02/26 05:04:05;;;;;;;0.00;0.00;;;7.60;91.80;;;;;;5051536;28;20376;-78
2023/02/26 05:06:31;;;;;;;0.00;0.00;;;7.60;91.70;;;;;;5051228;28;20388;-78
2023/02/26 05:08:57;;;;;;;0.00;0.00;;;7.60;91.70;;;;;;5069086;28;20420;-78
2023/02/26 05:11:23;;;;;;;0.00;0.00;;;7.50;91.70;;;;;;5069413;28;20040;-78
2023/02/26 05:13:48;;;;;;;0.00;0.00;;;7.50;91.80;;;;;;5069312;28;20032;-78
2023/02/26 05:16:14;;;;;;;0.00;0.00;;;7.50;91.80;;;;;;5069259;28;20395;-78
2023/02/26 05:18:40;;;;;;;0.00;0.00;;;7.50;91.80;;;;;;5069182;28;20032;-77
2023/02/26 05:21:06;;;;;;;0.00;0.00;;;7.40;91.80;;;;;;5069161;28;20387;-78
2023/02/26 05:23:32;;;;;;;0.00;0.00;;;7.40;91.80;;;;;;5069057;28;20037;-78
2023/02/26 05:25:58;;;;;;;0.00;0.00;;;7.40;91.90;;;;;;5069116;28;20193;-78
2023/02/26 05:28:24;;;;;;;0.00;0.00;;;7.30;91.90;;;;;;5069003;28;20024;-78
2023/02/26 05:30:50;;;;;;;0.00;0.00;;;7.30;91.90;;;;;;5051017;28;20098;-78
2023/02/26 05:33:16;;;;;;;0.00;0.00;;;7.30;91.90;;;;;;5068902;28;20032;-78
2023/02/26 05:35:42;;;;;;;0.00;0.00;;;7.40;91.90;;;;;;5068858;28;20036;-78
2023/02/26 05:38:08;;;;;;;0.00;0.00;;;7.40;91.90;;;;;;5068733;28;20023;-77
2023/02/26 05:40:34;;;;;;;0.00;0.00;;;7.40;91.90;;;;;;5068817;28;20435;-78
2023/02/26 05:42:59;;;;;;;0.00;0.00;;;7.40;91.90;;;;;;5068708;28;20499;-78
2023/02/26 05:45:25;;;;;;;0.00;0.00;;;7.40;91.90;;;;;;5050641;28;20052;-78
2023/02/26 05:47:51;;;;;;;0.00;0.00;;;7.40;91.90;;;;;;5050569;28;20079;-78
2023/02/26 05:50:16;;;;;;;0.00;0.00;;;7.40;91.90;;;;;;5068428;28;20032;-77
2023/02/26 05:52:42;;;;;;;0.00;0.00;;;7.40;91.90;;;;;;5068595;28;20465;-77
2023/02/26 05:55:09;;;;;;;0.00;0.00;;;7.40;91.90;;;;;;5050626;28;20066;-78
2023/02/26 05:57:35;;;;;;;0.00;0.00;;;7.40;91.90;;;;;;5050450;28;20045;-78
2023/02/26 06:00:00;;;;;;;0.00;0.00;;;7.40;91.90;;;;;;5068306;28;20479;-78
2023/02/26 06:02:26;;;;;;;0.00;0.00;;;7.40;91.80;;;;;;5068370;28;20171;-77
2023/02/26 06:04:52;;;;;;;0.00;0.00;;;7.40;91.80;;;;;;5068259;28;20028;-77
2023/02/26 06:07:18;;;;;;;0.00;0.00;;;7.40;91.90;;;;;;5050393;28;20395;-78
2023/02/26 06:09:43;;;;;;;0.00;0.00;;;7.40;91.90;;;;;;5068152;28;20155;-78
2023/02/26 06:12:09;;;;;;;0.00;0.00;;;7.40;91.90;;;;;;5068371;28;20033;-78
2023/02/26 06:14:35;;;;;;;0.00;0.00;;;7.40;91.90;;;;;;5068293;28;20051;-77
2023/02/26 06:17:02;;;;;;;0.00;0.00;;;7.40;91.90;;;;;;5067919;28;20284;-78
2023/02/26 06:19:28;;;;;;;0.00;0.00;;;7.40;91.90;;;;;;5067950;28;20033;-78
2023/02/26 06:21:54;;;;;;;0.00;0.00;;;7.40;92.10;;;;;;5068016;28;20404;-78
2023/02/26 06:24:20;;;;;;;0.00;0.00;;;7.40;91.90;;;;;;5068002;28;20036;-78
2023/02/26 06:26:45;;;;;;;0.00;0.00;;;7.50;91.90;;;;;;5050225;28;20446;-77
2023/02/26 06:29:11;;;;;;;0.00;0.00;;;7.50;91.90;;;;;;5049894;28;20517;-78
2023/02/26 06:31:37;;;;;;;0.00;0.00;;;7.50;91.80;;;;;;5067851;28;20017;-77
2023/02/26 06:34:03;;;;;;;0.00;0.00;;;7.50;91.80;;;;;;5067395;28;20150;-78
2023/02/26 06:36:28;;;;;;;0.00;0.00;;;7.50;91.90;;;;;;5049872;28;20109;-78
2023/02/26 06:38:54;;;;;;;0.00;0.00;;;7.60;91.90;;;;;;5067760;28;20106;-77
2023/02/26 06:41:20;;;;;;;0.00;0.00;;;7.50;91.80;;;;;;5049762;28;20613;-78
2023/02/26 06:43:45;;;;;;;0.00;0.00;;;7.50;91.80;;;;;;5067881;28;20402;-77
2023/02/26 06:46:11;;;;;;;0.00;0.00;;;7.50;91.80;;;;;;5067576;28;20059;-78
2023/02/26 06:48:37;;;;;;;0.00;0.00;;;7.50;91.80;;;;;;5067482;28;20033;-78
2023/02/26 06:51:03;;;;;;;0.00;0.00;;;7.50;91.90;;;;;;5067529;28;20460;-78
2023/02/26 06:53:28;;;;;;;0.00;0.00;;;7.50;91.90;;;;;;5067599;28;20032;-78
2023/02/26 06:55:54;;;;;;;0.00;0.00;;;7.40;91.90;;;;;;5049487;28;20036;-78
2023/02/26 06:58:21;;;;;;;0.00;0.00;;;7.40;91.90;;;;;;5049580;28;20082;-78
2023/02/26 07:00:47;;;;;;;0.00;0.00;;;7.50;91.90;;;;;;5067469;28;20108;-77
2023/02/26 07:03:15;;;;;;;0.00;0.00;;;7.50;91.90;;;;;;5067619;28;20450;-78
2023/02/26 07:05:41;;;;;;;0.00;0.00;;;7.50;91.90;;;;;;5067425;28;20060;-78
2023/02/26 07:08:07;;;;;;;0.00;0.00;;;7.50;91.90;;;;;;5067337;28;20067;-78
2023/02/26 07:10:33;;;;;;;;;;;7.50;91.90;;;;;;5067882;28;20029;-78
2023/02/26 07:12:59;;;;;;;0.00;0.00;;;7.60;91.90;;;;;;5067465;28;19908;-78
2023/02/26 07:15:24;;;;;;;0.00;0.00;;;7.50;91.80;;;;;;5067398;28;20078;-77
2023/02/26 07:17:50;;;;;;;0.00;0.00;;;7.60;91.90;;;;;;5049052;28;20041;-78
2023/02/26 07:20:17;;;;;;;0.00;0.00;;;7.60;91.90;;;;;;5049550;28;20040;-78
2023/02/26 07:22:43;;;;;;;0.00;0.00;;;7.60;91.80;;;;;;5067252;28;20033;-78
2023/02/26 07:25:10;;;;;;;0.00;0.00;;;7.60;91.80;;;;;;5067349;28;20055;-78
2023/02/26 07:27:36;;;;;;;0.00;0.00;;;7.70;91.80;;;;;;5049220;28;20024;-78
2023/02/26 07:30:03;;;;;;;0.00;0.00;;;7.70;91.80;;;;;;5067832;28;20484;-78
2023/02/26 07:32:28;;;;;;;0.00;0.00;;;7.70;91.80;;;;;;5071112;28;20040;-78
2023/02/26 07:34:54;;;;;;;0.00;0.00;;;7.80;91.80;;;;;;5053350;28;20042;-78
2023/02/26 07:37:20;;;;;;;0.00;0.00;;;7.80;91.70;;;;;;5071059;28;20071;-78
2023/02/26 07:39:46;;;;;;;0.00;0.00;;;7.80;91.70;;;;;;5070898;28;20042;-78
2023/02/26 07:42:11;;;;;;;0.00;0.00;;;7.80;91.70;;;;;;5071130;28;20032;-78
2023/02/26 07:44:37;;;;;;;0.00;0.00;;;7.80;91.70;;;;;;5071006;28;20488;-78
2023/02/26 07:47:03;;;;;;;0.00;0.00;;;7.80;91.80;;;;;;5070691;28;20142;-78
2023/02/26 07:49:29;;;;;;;0.00;0.00;;;7.70;91.70;;;;;;5070675;28;20497;-78
2023/02/26 07:51:54;;;;;;;0.00;0.00;;;7.70;91.80;;;;;;5071065;28;20468;-78
2023/02/26 07:54:20;;;;;;;0.00;0.00;;;7.70;91.80;;;;;;5070849;28;20103;-78
2023/02/26 07:56:46;;;;;;;0.00;0.00;;;7.80;91.90;;;;;;5070453;28;20035;-77
2023/02/26 07:59:12;;;;;;;0.00;0.00;;;7.70;91.80;;;;;;5070508;28;20048;-77
2023/02/26 08:01:37;;;;;;;0.00;0.00;;;7.70;91.80;;;;;;5070385;28;20103;-77
2023/02/26 08:04:03;;;;;;;0.00;0.00;;;7.80;91.90;;;;;;5070581;28;20044;-77
2023/02/26 08:06:29;;;;;;;0.00;0.00;;;7.80;91.90;;;;;;5052621;28;20090;-77
2023/02/26 08:08:55;;;;;;;0.00;0.00;;;7.90;91.90;;;;;;5052509;28;20481;-77
2023/02/26 08:11:20;;;;;;;0.00;0.00;;;7.90;91.80;;;;;;5070431;28;20104;-78
2023/02/26 08:13:46;;;;;;;0.00;0.00;;;7.90;91.80;;;;;;5052751;28;20108;-78
2023/02/26 08:16:12;;;;;;;0.00;0.00;;;7.90;91.80;;;;;;5070391;28;20027;-78
2023/02/26 08:18:37;;;;;;;0.00;0.00;;;7.80;91.80;;;;;;5070601;28;20106;-77
2023/02/26 08:21:04;;;;;;;0.00;0.00;;;7.80;91.90;;;;;;5070194;28;20055;-77
2023/02/26 08:23:29;;;;;;;0.00;0.00;;;7.80;91.90;;;;;;5070161;28;20078;-77
2023/02/26 08:26:03;;;;;;;0.00;0.00;;;7.80;91.90;;;;;;5070050;28;20024;-78
2023/02/26 08:28:29;;;;;;;0.00;0.00;;;7.80;91.90;;;;;;5069913;28;20392;-77
2023/02/26 08:30:55;;;;;;;0.00;0.00;;;7.80;91.90;;;;;;5069624;28;20036;-77
2023/02/26 08:33:21;;;;;;;0.00;0.00;;;7.80;91.90;;;;;;5069900;28;20082;-78
2023/02/26 08:35:47;;;;;;;;;;;7.80;91.90;;;;;;5070376;28;20024;-78
2023/02/26 08:38:13;;;;;;;0.00;0.00;;;7.90;91.90;;;;;;5070049;28;19962;-78
2023/02/26 08:40:39;;;;;;;0.00;0.00;;;8.00;91.90;;;;;;5069947;28;20528;-77
2023/02/26 08:43:04;;;;;;;0.00;0.00;;;7.90;91.90;;;;;;5068937;28;20032;-78
2023/02/26 08:45:30;;;;;;;0.00;0.00;;;8.00;91.90;;;;;;5069567;28;20504;-77
2023/02/26 08:47:56;;;;;;;0.00;0.00;;;8.00;91.90;;;;;;5069981;28;20071;-78
2023/02/26 08:50:22;;;;;;;0.00;0.00;;;8.00;91.90;;;;;;5069660;28;20426;-78
2023/02/26 08:52:48;;;;;;;;;;;8.10;92.00;;;;;;5069867;28;20028;-78
2023/02/26 08:55:13;;;;;;;0.00;0.00;;;8.10;92.00;;;;;;5051606;28;19928;-78
2023/02/26 08:57:39;;;;;;;0.00;0.00;;;8.20;92.00;;;;;;5069336;28;20404;-78
2023/02/26 09:00:09;;;;;;;0.00;0.00;;;8.30;92.10;;;;;;5069334;28;20100;-78
2023/02/26 09:02:36;;;;;;;0.00;0.00;;;8.60;92.40;;;;;;5069369;28;20032;-78
2023/02/26 09:05:01;;;;;;;0.00;0.00;;;8.80;92.10;;;;;;5071260;28;20025;-78
2023/02/26 09:07:27;;;;;;;0.00;0.00;;;8.80;92.00;;;;;;5069493;28;20522;-78
2023/02/26 09:09:53;;;;;;;0.00;0.00;;;8.80;91.90;;;;;;5051166;28;20523;-78
2023/02/26 09:12:18;;;;;;;0.00;0.00;;;8.70;92.00;;;;;;5051398;28;20033;-78
2023/02/26 09:14:44;;;;;;;0.00;0.00;;;8.60;91.90;;;;;;5069305;28;20488;-78
2023/02/26 09:17:10;;;;;;;0.00;0.00;;;8.60;92.20;;;;;;5069189;28;20056;-78
2023/02/26 09:19:35;;;;;;;0.00;0.00;;;8.60;92.10;;;;;;5051199;28;20086;-78
2023/02/26 09:22:02;;;;;;;0.00;0.00;;;8.60;92.10;;;;;;5068865;28;20033;-78
2023/02/26 09:24:27;;;;;;;0.00;0.00;;;8.70;92.10;;;;;;5069446;28;20033;-72
2023/02/26 09:26:53;;;;;;;0.00;0.00;;;8.70;92.00;;;;;;5068974;28;20025;-72
2023/02/26 09:29:19;;;;;;;0.00;0.00;;;8.70;92.00;;;;;;5068439;28;20322;-72
2023/02/26 09:31:44;;;;;;;0.00;0.00;;;8.70;91.90;;;;;;5050435;28;20384;-72
2023/02/26 09:34:11;;;;;;;0.00;0.00;;;8.70;91.90;;;;;;5050650;28;20103;-72
2023/02/26 09:36:37;;;;;;;0.00;0.00;;;8.60;92.00;;;;;;5068616;28;20056;-72
2023/02/26 09:39:03;;;;;;;;;;;8.60;92.00;;;;;;5068784;28;20089;-72
2023/02/26 09:41:33;;;;;;;0.00;0.00;;;8.70;92.20;;;;;;5068344;28;19909;-72
2023/02/26 09:44:07;;;;;;;0.00;0.00;;;8.90;92.30;;;;;;5050422;28;20129;-72
2023/02/26 09:47:14;;;;;;;0.00;0.00;;;9.10;92.20;;;;;;5050296;28;20136;-72
2023/02/26 09:50:15;;;;;;;0.00;0.00;;;9.10;92.10;;;;;;5068193;28;20068;-72
2023/02/26 09:52:57;;;;;;;0.00;0.00;;;9.10;92.00;;;;;;5049988;28;20111;-72
2023/02/26 09:55:43;;;;;;;0.00;0.00;;;9.00;92.00;;;;;;5068066;28;20020;-72
2023/02/26 09:58:24;;;;;;;0.00;0.00;;;8.90;92.00;;;;;;5067977;28;20130;-72
2023/02/26 10:01:06;;;;;;;0.00;0.00;;;8.80;92.20;;;;;;5049813;28;20032;-72
2023/02/26 10:03:47;;;;;;;0.00;0.00;;;8.80;92.10;;;;;;5067982;28;20044;-72
2023/02/26 10:06:27;;;;;;;0.00;0.00;;;8.90;92.30;;;;;;5067706;28;20028;-72
2023/02/26 10:09:45;;;;;;;0.00;0.00;;;9.00;92.30;;;;;;5067812;28;20077;-72
2023/02/26 10:12:21;;;;;;;0.00;0.00;;;9.30;92.30;;;;;;5041753;28;20029;-72
2023/02/26 10:15:12;;;;;;;0.00;0.00;;;9.50;92.20;;;;;;5067917;28;20070;-72
2023/02/26 10:18:10;;;;;;;0.00;0.00;;;9.70;92.20;;;;;;5067750;28;20017;-72
2023/02/26 10:20:46;;;;;;;0.00;0.00;;;10.00;92.40;;;;;;5067996;28;20081;-72
2023/02/26 10:23:25;;;;;;;0.00;0.00;;;10.80;93.10;;;;;;5067975;28;20379;-72
2023/02/26 10:26:09;;;;;;;0.00;0.00;;;11.00;92.40;;;;;;5067505;28;20093;-73
2023/02/26 10:29:16;;;;;;;0.00;0.00;;;11.00;92.10;;;;;;5067378;28;20028;-72
2023/02/26 10:32:04;;;;;;;0.00;0.00;;;10.70;91.90;;;;;;5049310;28;20045;-73
2023/02/26 10:34:36;;;;;;;0.00;0.00;;;10.40;91.80;;;;;;5067270;28;20059;-72
2023/02/26 10:37:27;;;;;;;0.00;0.00;;;10.10;91.90;;;;;;5049300;28;20177;-72
2023/02/26 10:40:08;;;;;;;0.00;0.00;;;10.00;92.00;;;;;;5067037;28;20146;-73
2023/02/26 10:42:42;;;;;;;0.00;0.00;;;9.90;92.10;;;;;;5066943;28;20024;-72
2023/02/26 10:45:27;;;;;;;0.00;0.00;;;9.80;92.10;;;;;;5066980;28;20016;-69
2023/02/26 10:48:37;;;;;;;0.00;0.00;;;9.60;92.10;;;;;;5048497;28;20024;-70
2023/02/26 10:51:13;;;;;;;0.00;0.00;;;9.60;92.20;;;;;;5066478;28;20067;-70
2023/02/26 10:53:47;;;;;;;0.00;0.00;;;9.50;92.10;;;;;;5067062;28;20020;-73
2023/02/26 10:56:33;;;;;;;0.00;0.00;;;9.50;92.20;;;;;;5066780;28;20472;-73
2023/02/26 10:58:59;;;;;;;0.00;0.00;;;9.50;92.30;;;;;;5066435;28;20032;-73
2023/02/26 11:01:28;;;;;;;0.00;0.00;;;9.60;92.20;;;;;;5048782;28;20056;-72
2023/02/26 11:04:03;;;;;;;0.00;0.00;;;9.50;92.20;;;;;;5067051;28;20562;-73
2023/02/26 11:06:59;;;;;;;0.00;0.00;;;9.60;92.20;;;;;;5066131;28;20392;-70
2023/02/26 11:09:42;;;;;;;0.00;0.00;;;9.70;92.30;;;;;;5049861;28;20576;-70
2023/02/26 11:12:11;;;;;;;0.00;0.00;;;9.80;92.40;;;;;;5066551;28;20030;-72
2023/02/26 11:14:38;;;;;;;0.00;0.00;;;9.90;92.40;;;;;;5066570;28;20034;-70
2023/02/26 11:17:16;;;;;;;0.00;0.00;;;10.00;92.30;;;;;;5066136;28;20053;-71
2023/02/26 11:19:56;;;;;;;0.00;0.00;;;10.10;92.30;;;;;;5066393;28;20123;-70
2023/02/26 11:22:24;;;;;;;0.00;0.00;;;10.20;92.40;;;;;;5066586;28;20275;-70
2023/02/26 11:24:51;;;;;;;0.00;0.00;;;10.80;93.50;;;;;;5048218;28;20028;-71
2023/02/26 11:27:26;;;;;;;0.00;0.00;;;12.10;94.00;;;;;;5066767;28;20477;-78
2023/02/26 11:29:57;;;;;;;0.00;0.00;;;12.80;93.50;;;;;;5048985;28;20036;-79
2023/02/26 11:32:35;;;;;;;0.00;0.00;;;14.10;94.10;;;;;;5066759;28;20138;-79
2023/02/26 11:35:01;;;;;;;0.00;0.00;;;15.30;94.10;;;;;;5066633;28;20020;-80
2023/02/26 11:37:30;;;;;;;0.00;0.00;;;16.20;93.90;;;;;;5066661;28;20037;-80
2023/02/26 11:40:17;;;;;;;0.00;0.00;;;16.90;93.60;;;;;;5066444;28;20021;-80
2023/02/26 11:42:49;;;;;;;0.00;0.00;;;16.50;92.40;;;;;;5066868;28;20036;-80
2023/02/26 11:45:18;;;;;;;0.00;0.00;;;15.60;92.10;;;;;;5066401;28;20040;-80
2023/02/26 11:47:45;;;;;;;0.00;0.00;;;14.80;92.10;;;;;;5048910;28;20070;-80
2023/02/26 11:50:24;;;;;;;0.00;0.00;;;14.10;92.10;;;;;;5048803;28;20035;-79
2023/02/26 11:53:06;;;;;;;0.00;0.00;;;13.50;92.30;;;;;;5067104;28;20381;-79
2023/02/26 11:55:36;;;;;;;0.00;0.00;;;13.00;92.40;;;;;;5067042;28;20353;-79
2023/02/26 11:58:15;;;;;;;0.00;0.00;;;12.60;92.40;;;;;;5066996;28;20108;-81
2023/02/26 12:00:41;;;;;;;0.00;0.00;;;12.30;92.40;;;;;;5066431;28;20027;-79
2023/02/26 12:03:16;;;;;;;0.00;0.00;;;12.10;92.50;;;;;;5047975;28;20032;-79
2023/02/26 12:05:41;;;;;;;0.00;0.00;;;11.90;92.40;;;;;;5066450;28;20096;-79
2023/02/26 12:08:23;;;;;;;0.00;0.00;;;11.50;92.30;;;;;;5066525;28;20036;-79
2023/02/26 12:11:04;;;;;;;0.00;0.00;;;11.30;92.40;;;;;;5066847;28;20078;-79
2023/02/26 12:13:39;;;;;;;0.00;0.00;;;11.20;92.50;;;;;;5048311;28;20074;-79
2023/02/26 12:16:19;;;;;;;0.00;0.00;;;11.00;92.50;;;;;;5067235;28;20040;-78
2023/02/26 12:18:50;;;;;;;0.00;0.00;;;11.00;92.60;;;;;;5069303;28;20096;-79
2023/02/26 12:21:30;;;;;;;0.00;0.00;;;11.00;92.70;;;;;;5051411;28;20032;-78
2023/02/26 12:24:24;;;;;;;0.00;0.00;;;11.00;92.60;;;;;;5069166;28;20024;-78
2023/02/26 12:27:25;;;;;;;0.00;0.00;;;11.30;93.10;;;;;;5069564;28;20020;-71
2023/02/26 12:30:13;;;;;;;0.00;0.00;;;11.60;93.00;;;;;;5047887;28;20037;-70
2023/02/26 12:33:00;;;;;;;0.00;0.00;;;11.60;92.50;;;;;;5069173;28;20027;-70
2023/02/26 12:35:26;;;;;;;;;;;11.60;93.00;;;;;;5069563;28;20052;-70
2023/02/26 12:38:12;;;;;;;0.00;0.00;;;12.30;93.80;;;;;;5051109;28;20352;-71
2023/02/26 12:40:55;;;;;;;0.00;0.00;;;13.40;94.40;;;;;;5069117;28;20029;-70
2023/02/26 12:43:33;;;;;;;0.00;0.00;;;14.70;94.20;;;;;;5050930;28;20035;-67
2023/02/26 12:46:11;;;;;;;0.00;0.00;;;15.40;93.90;;;;;;5069195;28;20388;-71
2023/02/26 12:48:48;;;;;;;0.00;0.00;;;16.10;93.90;;;;;;5068918;28;20028;-72
2023/02/26 12:51:46;;;;;;;0.00;0.00;;;16.50;93.40;;;;;;5050329;28;20042;-72
2023/02/26 12:54:36;;;;;;;0.00;0.00;;;16.00;92.50;;;;;;5049984;28;20031;-71
2023/02/26 12:57:43;;;;;;;0.00;0.00;;;15.10;92.40;;;;;;5050715;28;20021;-72
2023/02/26 13:00:24;;;;;;;0.00;0.00;;;14.30;92.40;;;;;;4987278;28;20037;-79
2023/02/26 13:03:08;;;;;;;0.00;0.00;;;13.70;92.50;;;;;;5063822;28;20086;-80
2023/02/26 13:05:59;;;;;;;0.00;0.00;;;13.10;92.60;;;;;;5069177;28;20127;-80
2023/02/26 13:08:37;;;;;;;0.00;0.00;;;12.70;92.70;;;;;;5069403;28;20090;-80
2023/02/26 13:11:24;;;;;;;0.00;0.00;;;12.40;92.60;;;;;;5070075;28;20020;-79
2023/02/26 13:13:59;;;;;;;0.00;0.00;;;12.20;92.90;;;;;;5068952;28;20020;-80
2023/02/26 13:17:01;;;;;;;0.00;0.00;;;12.10;92.50;;;;;;5069004;28;20055;-80
2023/02/26 13:19:47;;;;;;;0.00;0.00;;;12.00;92.50;;;;;;5068769;28;20058;-81
2023/02/26 13:22:33;;;;;;;0.00;0.00;;;11.90;92.80;;;;;;5068758;28;20020;-81
2023/02/26 13:25:14;;;;;;;0.00;0.00;;;12.40;93.70;;;;;;5068859;28;20027;-80